Abbott, New Mexico
Current Conditions -  °F | °C
As of 2:53 PM on Thursday 23 Oct 2014 (Local Time) from KRTN Reporting Station
Clear Clear  
Wind Chill: 72°   Ceiling: Unl
Heat Index: 72°   Visibility: 10mi
Dew Point: 30°   Wind: 0mph
Humidity: 21%   Direction: NA
Pressure: 30.17"   Gusts: NA
Location:  36.3883°N, 104.381°W
Report Text: KRTN 232053Z AUTO 00000KT 10SM CLR 22/M01 A3017 RMK AO2 SLP151 T02221011 56019
Loading
Personal Weather Stations






























Interactive Weather Map
Tropical Storm Tracking
New forecast layout! Learn more

10-Day Weather Forecast

Advertisements
Track Severe Weather on mobile